Time;durP1;ratioP1;P1;durP2;ratioP2;P2;SDS_P1;SDS_P2;PMS_P1;PMS_P2;Temp;Humidity;BMP_temperature;BMP_pressure;BME280_temperature;BME280_humidity;BME280_pressure;Samples;Min_cycle;Max_cycle;Signal;HPM_P1;HPM_P2
2022/11/02 00:01:47;;;;;;;123.80;52.92;;;;;;;;;;5059405;28;20049;-78
2022/11/02 00:04:33;;;;;;;119.55;50.58;;;;;;;;;;5052173;28;20032;-77
2022/11/02 00:07:19;;;;;;;105.53;44.05;;;;;;;;;;5059171;28;20048;-78
2022/11/02 00:10:04;;;;;;;95.32;41.78;;;;;;;;;;5058815;28;20041;-78
2022/11/02 00:12:50;;;;;;;128.77;54.90;;;;;;;;;;5059350;28;20044;-78
2022/11/02 00:15:36;;;;;;;149.82;65.13;;;;;;;;;;5060281;28;20053;-78
2022/11/02 00:18:31;;;;;;;154.65;67.20;;;;;;;;;;5060495;28;20048;-78
2022/11/02 00:21:18;;;;;;;151.27;65.97;;;;;;;;;;5053740;28;20045;-79
2022/11/02 00:24:05;;;;;;;125.38;54.38;;;;;;;;;;5059601;28;20053;-77
2022/11/02 00:26:52;;;;;;;95.00;39.95;;;;;;;;;;5053551;28;20045;-78
2022/11/02 00:29:38;;;;;;;60.35;28.17;;;;;;;;;;5053816;28;20464;-78
2022/11/02 00:32:25;;;;;;;58.92;25.55;;;;;;;;;;5060061;28;20036;-79
2022/11/02 00:35:11;;;;;;;45.65;23.75;;;;;;;;;;5053741;28;20057;-76
2022/11/02 00:37:55;;;;;;;53.03;23.10;;;;;;;;;;5060249;28;20041;-77
2022/11/02 00:40:42;;;;;;;52.97;22.92;;;;;;;;;;5072707;28;20044;-80
2022/11/02 00:43:28;;;;;;;48.08;23.88;;;;;;;;;;5060511;28;20037;-78
2022/11/02 00:46:13;;;;;;;51.30;26.48;;;;;;;;;;5078214;28;20045;-80
2022/11/02 00:48:58;;;;;;;56.65;28.33;;;;;;;;;;5058249;28;20372;-79
2022/11/02 00:51:46;;;;;;;70.18;29.77;;;;;;;;;;5056536;28;20473;-78
2022/11/02 00:54:34;;;;;;;68.85;31.48;;;;;;;;;;5076864;28;20045;-78
2022/11/02 00:57:19;;;;;;;69.22;34.45;;;;;;;;;;5077746;28;20037;-78
2022/11/02 01:00:06;;;;;;;76.78;34.28;;;;;;;;;;5063734;28;20041;-78
2022/11/02 01:02:52;;;;;;;71.63;33.42;;;;;;;;;;5063921;28;20041;-78
2022/11/02 01:05:38;;;;;;;83.50;39.50;;;;;;;;;;5057541;28;20037;-78
2022/11/02 01:08:23;;;;;;;73.55;35.97;;;;;;;;;;5056984;28;20044;-78
2022/11/02 01:11:18;;;;;;;38.85;20.98;;;;;;;;;;5063883;28;20045;-78
2022/11/02 01:14:03;;;;;;;46.45;22.40;;;;;;;;;;5062524;28;20041;-79
2022/11/02 01:16:49;;;;;;;45.67;22.80;;;;;;;;;;5063431;28;20041;-79
2022/11/02 01:19:36;;;;;;;45.03;22.63;;;;;;;;;;5076845;28;20041;-78
2022/11/02 01:22:21;;;;;;;38.13;19.15;;;;;;;;;;5056871;28;20468;-80
2022/11/02 01:25:08;;;;;;;44.33;21.35;;;;;;;;;;5062650;28;20414;-79
2022/11/02 01:27:53;;;;;;;39.15;16.98;;;;;;;;;;5056873;28;20045;-80
2022/11/02 01:30:39;;;;;;;42.00;18.15;;;;;;;;;;5063194;28;20395;-79
2022/11/02 01:33:25;;;;;;;32.47;16.67;;;;;;;;;;5057797;28;20033;-79
2022/11/02 01:36:13;;;;;;;36.33;15.70;;;;;;;;;;5076013;28;20379;-79
2022/11/02 01:38:59;;;;;;;30.50;14.52;;;;;;;;;;5076507;28;20045;-79
2022/11/02 01:41:44;;;;;;;26.52;14.82;;;;;;;;;;5063036;28;20049;-79
2022/11/02 01:44:33;;;;;;;31.58;16.42;;;;;;;;;;5061739;28;20040;-78
2022/11/02 01:47:25;;;;;;;23.85;13.52;;;;;;;;;;5063168;28;20041;-79
2022/11/02 01:50:22;;;;;;;28.67;14.32;;;;;;;;;;5056220;28;20045;-79
2022/11/02 01:53:08;;;;;;;23.88;12.57;;;;;;;;;;5076205;28;20033;-79
2022/11/02 01:55:53;;;;;;;31.90;15.02;;;;;;;;;;5076116;28;20045;-78
2022/11/02 01:58:40;;;;;;;36.03;17.13;;;;;;;;;;5061486;28;20041;-80
2022/11/02 02:01:26;;;;;;;39.65;16.65;;;;;;;;;;5062270;28;20037;-79
2022/11/02 02:04:12;;;;;;;39.10;16.70;;;;;;;;;;5062314;28;20041;-79
2022/11/02 02:06:59;;;;;;;38.95;15.98;;;;;;;;;;5061833;28;20041;-79
2022/11/02 02:09:44;;;;;;;31.35;15.35;;;;;;;;;;5056303;28;20044;-78
2022/11/02 02:12:30;;;;;;;24.77;14.50;;;;;;;;;;5055496;28;20048;-80
2022/11/02 02:15:16;;;;;;;29.95;14.23;;;;;;;;;;5075785;28;20045;-78
2022/11/02 02:18:11;;;;;;;21.92;13.82;;;;;;;;;;5057669;28;20463;-79
2022/11/02 02:21:27;;;;;;;30.30;13.38;;;;;;;;;;5075746;28;20048;-80
2022/11/02 02:24:34;;;;;;;28.02;13.75;;;;;;;;;;5054930;28;20460;-79
2022/11/02 02:28:02;;;;;;;33.47;15.07;;;;;;;;;;5075511;28;20048;-76
2022/11/02 02:31:01;;;;;;;36.10;15.93;;;;;;;;;;5061635;28;20380;-79
2022/11/02 02:33:56;;;;;;;34.85;18.58;;;;;;;;;;5061021;28;20037;-78
2022/11/02 02:37:29;;;;;;;49.05;22.92;;;;;;;;;;5061397;28;20399;-78
2022/11/02 02:40:23;;;;;;;55.17;25.38;;;;;;;;;;5052186;28;20040;-80
2022/11/02 02:43:16;;;;;;;50.70;23.27;;;;;;;;;;5075230;28;20049;-80
2022/11/02 02:46:14;;;;;;;44.97;23.27;;;;;;;;;;5055024;28;20384;-79
2022/11/02 02:49:00;;;;;;;48.08;23.95;;;;;;;;;;5075061;28;20380;-79
2022/11/02 02:51:46;;;;;;;53.15;24.45;;;;;;;;;;5056146;28;20040;-80
2022/11/02 02:54:37;;;;;;;42.75;22.23;;;;;;;;;;5060670;28;20033;-79
2022/11/02 02:57:24;;;;;;;37.65;20.10;;;;;;;;;;5054893;28;20066;-79
2022/11/02 03:00:18;;;;;;;43.92;20.75;;;;;;;;;;5061534;28;20045;-79
2022/11/02 03:03:06;;;;;;;39.67;19.58;;;;;;;;;;5061473;28;20040;-79
2022/11/02 03:06:08;;;;;;;41.65;20.05;;;;;;;;;;5060756;28;20037;-79
2022/11/02 03:08:58;;;;;;;37.53;20.13;;;;;;;;;;5074343;28;20479;-79
2022/11/02 03:12:02;;;;;;;41.22;20.33;;;;;;;;;;5061745;28;20037;-78
2022/11/02 03:14:58;;;;;;;38.50;19.02;;;;;;;;;;5061630;28;20041;-78
2022/11/02 03:17:49;;;;;;;42.35;19.55;;;;;;;;;;5060411;28;20040;-78
2022/11/02 03:21:09;;;;;;;43.05;21.55;;;;;;;;;;5060246;28;20041;-79
2022/11/02 03:24:09;;;;;;;45.72;20.25;;;;;;;;;;5039678;28;20036;-79
2022/11/02 03:27:04;;;;;;;37.22;17.75;;;;;;;;;;5060381;28;20041;-79
2022/11/02 03:30:03;;;;;;;34.80;17.52;;;;;;;;;;5074220;28;20037;-79
2022/11/02 03:33:08;;;;;;;36.15;17.77;;;;;;;;;;5060239;28;20037;-79
2022/11/02 03:36:00;;;;;;;33.72;17.52;;;;;;;;;;5059887;28;20468;-79
2022/11/02 03:38:59;;;;;;;34.78;16.98;;;;;;;;;;5060184;28;20044;-79
2022/11/02 03:41:46;;;;;;;36.38;18.23;;;;;;;;;;5073492;28;20052;-79
2022/11/02 03:44:38;;;;;;;30.10;16.23;;;;;;;;;;5060442;28;20044;-82
2022/11/02 03:47:25;;;;;;;40.53;17.35;;;;;;;;;;5055454;28;20040;-80
2022/11/02 03:50:13;;;;;;;40.25;17.73;;;;;;;;;;5057130;28;20500;-79
2022/11/02 03:53:30;;;;;;;42.47;19.10;;;;;;;;;;5074352;28;20041;-79
2022/11/02 03:56:27;;;;;;;48.40;21.83;;;;;;;;;;5051643;28;20041;-78
2022/11/02 03:59:12;;;;;;;47.53;20.05;;;;;;;;;;5060040;28;20046;-79
2022/11/02 04:01:59;;;;;;;53.42;22.30;;;;;;;;;;5054394;28;20411;-78
2022/11/02 04:04:49;;;;;;;45.40;21.42;;;;;;;;;;5059669;28;20032;-78
2022/11/02 04:20:04;;;;;;;85.72;32.42;;;;;;;;;;5053199;28;20045;-79
2022/11/02 04:25:53;;;;;;;186.73;85.82;;;;;;;;;;5059344;28;20033;-79
2022/11/02 04:28:59;;;;;;;222.27;91.70;;;;;;;;;;5061747;28;20040;-79
2022/11/02 04:31:45;;;;;;;212.80;90.68;;;;;;;;;;5065332;28;20037;-79
2022/11/02 04:34:32;;;;;;;162.80;67.55;;;;;;;;;;5066087;28;20037;-80
2022/11/02 04:40:21;;;;;;;79.70;32.38;;;;;;;;;;5075937;28;20476;-79
2022/11/02 04:43:07;;;;;;;67.82;30.45;;;;;;;;;;5073926;28;20040;-80
2022/11/02 04:45:57;;;;;;;60.83;30.48;;;;;;;;;;5078989;28;20044;-80
2022/11/02 04:48:43;;;;;;;69.65;29.05;;;;;;;;;;5079544;28;20044;-79
2022/11/02 04:51:29;;;;;;;52.42;25.67;;;;;;;;;;5072877;28;20044;-78
2022/11/02 04:54:14;;;;;;;62.63;29.70;;;;;;;;;;5079388;28;20040;-78
2022/11/02 04:56:59;;;;;;;52.70;23.67;;;;;;;;;;5072254;28;20471;-79
2022/11/02 04:59:46;;;;;;;56.38;22.83;;;;;;;;;;5077671;28;20048;-78
2022/11/02 05:02:32;;;;;;;49.15;20.27;;;;;;;;;;5079592;28;20044;-79
2022/11/02 05:05:17;;;;;;;43.28;19.23;;;;;;;;;;5059327;28;20464;-79
2022/11/02 05:08:03;;;;;;;44.20;18.55;;;;;;;;;;5058873;28;20044;-79
2022/11/02 05:10:53;;;;;;;36.65;19.23;;;;;;;;;;5059161;28;20041;-81
2022/11/02 05:13:40;;;;;;;44.85;18.50;;;;;;;;;;5064273;28;20029;-79
2022/11/02 05:16:26;;;;;;;34.20;17.70;;;;;;;;;;5099435;28;20040;-79
2022/11/02 05:19:12;;;;;;;39.08;18.13;;;;;;;;;;5099006;28;20463;-79
2022/11/02 05:21:58;;;;;;;33.55;16.02;;;;;;;;;;5058918;28;20476;-79
2022/11/02 05:24:45;;;;;;;43.42;18.00;;;;;;;;;;5058885;28;20041;-79
2022/11/02 05:27:31;;;;;;;38.95;18.52;;;;;;;;;;5090392;28;20040;-79
2022/11/02 05:30:17;;;;;;;44.72;20.95;;;;;;;;;;5086453;28;20040;-79
2022/11/02 05:33:02;;;;;;;51.53;19.88;;;;;;;;;;5082500;28;20045;-79
2022/11/02 05:35:48;;;;;;;48.50;20.38;;;;;;;;;;5082189;28;20036;-79
2022/11/02 05:38:33;;;;;;;53.88;20.85;;;;;;;;;;5090898;28;20386;-79
2022/11/02 05:41:20;;;;;;;41.95;19.13;;;;;;;;;;5102410;28;20040;-80
2022/11/02 05:44:06;;;;;;;48.22;21.00;;;;;;;;;;5097217;28;20043;-78
2022/11/02 05:46:54;;;;;;;52.58;20.15;;;;;;;;;;5078916;28;20044;-78
2022/11/02 05:49:40;;;;;;;50.80;20.33;;;;;;;;;;5081832;28;20045;-78
2022/11/02 05:52:25;;;;;;;51.92;19.35;;;;;;;;;;5056304;28;20388;-80
2022/11/02 05:55:11;;;;;;;40.63;16.88;;;;;;;;;;5063498;28;20049;-79
2022/11/02 05:57:57;;;;;;;40.22;17.30;;;;;;;;;;5062935;28;20040;-79
2022/11/02 06:00:42;;;;;;;44.83;18.42;;;;;;;;;;5056462;28;20045;-79
2022/11/02 06:03:29;;;;;;;45.83;18.48;;;;;;;;;;5062391;28;20041;-79
2022/11/02 06:06:14;;;;;;;38.63;18.50;;;;;;;;;;5081348;28;20045;-80
2022/11/02 06:09:00;;;;;;;37.35;17.05;;;;;;;;;;5082601;28;20052;-78
2022/11/02 06:11:45;;;;;;;41.80;18.23;;;;;;;;;;5087823;28;20040;-79
2022/11/02 06:14:31;;;;;;;50.83;17.95;;;;;;;;;;5075696;28;20395;-80
2022/11/02 06:17:16;;;;;;;47.80;20.02;;;;;;;;;;5077234;28;20044;-81
2022/11/02 06:20:02;;;;;;;51.47;20.80;;;;;;;;;;5081607;28;20044;-78
2022/11/02 06:22:47;;;;;;;44.97;20.88;;;;;;;;;;5081069;28;20045;-79
2022/11/02 06:25:32;;;;;;;47.13;22.48;;;;;;;;;;5081282;28;20049;-78
2022/11/02 06:28:19;;;;;;;50.05;22.80;;;;;;;;;;5074009;28;20044;-80
2022/11/02 06:31:04;;;;;;;48.13;23.52;;;;;;;;;;5080186;28;20475;-80
2022/11/02 06:33:49;;;;;;;55.30;26.92;;;;;;;;;;5082654;28;20040;-78
2022/11/02 06:36:35;;;;;;;62.22;28.25;;;;;;;;;;5075715;28;20040;-81
2022/11/02 06:39:21;;;;;;;59.95;28.38;;;;;;;;;;5076214;28;20467;-78
2022/11/02 06:42:06;;;;;;;61.25;30.42;;;;;;;;;;5081219;28;20053;-79
2022/11/02 06:44:51;;;;;;;73.50;31.60;;;;;;;;;;5081860;28;20044;-80
2022/11/02 06:47:37;;;;;;;64.18;30.85;;;;;;;;;;5081830;28;20036;-81
2022/11/02 06:50:23;;;;;;;68.45;31.30;;;;;;;;;;5077801;28;20040;-77
2022/11/02 06:53:08;;;;;;;71.18;30.73;;;;;;;;;;5081860;28;20049;-80
2022/11/02 06:55:56;;;;;;;76.10;31.55;;;;;;;;;;5075579;28;20049;-80
2022/11/02 06:58:42;;;;;;;64.07;26.60;;;;;;;;;;5081483;28;20052;-80
2022/11/02 07:01:27;;;;;;;51.20;25.80;;;;;;;;;;5081509;28;20044;-80
2022/11/02 07:04:12;;;;;;;60.05;25.88;;;;;;;;;;5075188;28;20048;-79
2022/11/02 07:06:57;;;;;;;53.05;24.85;;;;;;;;;;5074931;28;20044;-79
2022/11/02 07:09:43;;;;;;;62.47;26.83;;;;;;;;;;5082144;28;20044;-80
2022/11/02 07:12:32;;;;;;;45.25;22.63;;;;;;;;;;5079391;28;20040;-79
2022/11/02 07:15:19;;;;;;;44.90;21.42;;;;;;;;;;5081104;28;20040;-81
2022/11/02 07:18:05;;;;;;;45.35;21.55;;;;;;;;;;5074164;28;20032;-78
2022/11/02 07:20:50;;;;;;;34.88;18.17;;;;;;;;;;5079953;28;20040;-77
2022/11/02 07:23:35;;;;;;;41.72;19.48;;;;;;;;;;5074897;28;20036;-78
2022/11/02 07:26:20;;;;;;;45.60;19.70;;;;;;;;;;5074237;28;20464;-79
2022/11/02 07:29:06;;;;;;;38.13;19.50;;;;;;;;;;5081552;28;20457;-80
2022/11/02 07:31:52;;;;;;;53.20;20.60;;;;;;;;;;5080950;28;20052;-79
2022/11/02 07:34:37;;;;;;;43.05;20.65;;;;;;;;;;5073587;28;20044;-81
2022/11/02 07:37:22;;;;;;;59.13;19.33;;;;;;;;;;5073233;28;20052;-79
2022/11/02 07:40:10;;;;;;;42.65;15.55;;;;;;;;;;5066725;28;20040;-81
2022/11/02 07:42:56;;;;;;;46.80;15.80;;;;;;;;;;5080741;28;20040;-78
2022/11/02 07:45:49;;;;;;;34.67;14.10;;;;;;;;;;5079643;28;20475;-80
2022/11/02 07:48:34;;;;;;;31.05;13.68;;;;;;;;;;5073909;28;20045;-79
2022/11/02 07:51:20;;;;;;;35.83;13.90;;;;;;;;;;5075634;28;20460;-79
2022/11/02 07:54:05;;;;;;;27.05;12.90;;;;;;;;;;5073771;28;20044;-79
2022/11/02 07:56:51;;;;;;;29.75;13.60;;;;;;;;;;5074093;28;20487;-80
2022/11/02 07:59:36;;;;;;;33.17;13.30;;;;;;;;;;5081114;28;20386;-79
2022/11/02 08:02:21;;;;;;;33.15;14.43;;;;;;;;;;5081625;28;20036;-81
2022/11/02 08:05:07;;;;;;;32.63;13.75;;;;;;;;;;5081632;28;20463;-79
2022/11/02 08:08:00;;;;;;;26.17;11.45;;;;;;;;;;5073915;28;20471;-79
2022/11/02 08:10:48;;;;;;;28.67;11.70;;;;;;;;;;5080625;28;20054;-80
2022/11/02 08:13:36;;;;;;;24.90;11.25;;;;;;;;;;5080080;28;20044;-78
2022/11/02 08:16:21;;;;;;;31.25;10.30;;;;;;;;;;5079462;28;20040;-80
2022/11/02 08:19:07;;;;;;;25.38;9.38;;;;;;;;;;5079259;28;20036;-78
2022/11/02 08:21:52;;;;;;;29.40;9.85;;;;;;;;;;5080290;28;20399;-78
2022/11/02 08:24:38;;;;;;;21.92;7.28;;;;;;;;;;5073930;28;20041;-78
2022/11/02 08:27:23;;;;;;;18.38;7.30;;;;;;;;;;5080284;28;20467;-77
2022/11/02 08:30:10;;;;;;;16.45;7.25;;;;;;;;;;5073430;28;20036;-78
2022/11/02 08:33:02;;;;;;;16.55;6.38;;;;;;;;;;5080037;28;20036;-80
2022/11/02 08:35:47;;;;;;;17.95;6.93;;;;;;;;;;5073109;28;20056;-79
2022/11/02 08:38:33;;;;;;;16.60;6.20;;;;;;;;;;5073960;28;20048;-79
2022/11/02 08:41:18;;;;;;;19.00;5.78;;;;;;;;;;5080421;28;20407;-79
2022/11/02 08:44:03;;;;;;;20.45;5.45;;;;;;;;;;5073175;28;20481;-80
2022/11/02 08:46:48;;;;;;;19.10;6.90;;;;;;;;;;5080909;28;20044;-80
2022/11/02 08:49:34;;;;;;;20.13;6.45;;;;;;;;;;5079084;28;20040;-78
2022/11/02 08:52:20;;;;;;;26.33;9.88;;;;;;;;;;5080059;28;20383;-80
2022/11/02 08:55:05;;;;;;;25.20;10.07;;;;;;;;;;5074142;28;20048;-79
2022/11/02 08:57:56;;;;;;;27.33;10.10;;;;;;;;;;5080082;28;20052;-78
2022/11/02 09:00:41;;;;;;;30.63;12.27;;;;;;;;;;5080291;28;20049;-80
2022/11/02 09:03:27;;;;;;;35.13;12.73;;;;;;;;;;5079571;28;20045;-81
2022/11/02 09:06:12;;;;;;;26.52;11.93;;;;;;;;;;5075738;28;20052;-80
2022/11/02 09:08:57;;;;;;;31.00;10.48;;;;;;;;;;5084375;28;20040;-81
2022/11/02 09:11:42;;;;;;;28.88;10.73;;;;;;;;;;5083589;28;20049;-79
2022/11/02 09:14:28;;;;;;;29.48;10.80;;;;;;;;;;5083703;28;20036;-83
2022/11/02 09:17:15;;;;;;;37.45;11.43;;;;;;;;;;5076152;28;20044;-79
2022/11/02 09:20:00;;;;;;;27.60;9.70;;;;;;;;;;5083979;28;20070;-80
2022/11/02 09:22:45;;;;;;;26.45;10.38;;;;;;;;;;5083765;28;20052;-79
2022/11/02 09:25:30;;;;;;;23.58;10.05;;;;;;;;;;5082685;28;20044;-79
2022/11/02 09:28:16;;;;;;;41.08;15.85;;;;;;;;;;5084101;28;20040;-78
2022/11/02 09:31:03;;;;;;;25.40;9.75;;;;;;;;;;5077199;28;20371;-80
2022/11/02 09:33:48;;;;;;;31.30;12.90;;;;;;;;;;5083147;28;20041;-79
2022/11/02 09:36:34;;;;;;;32.65;11.70;;;;;;;;;;5083081;28;20475;-80
2022/11/02 09:39:23;;;;;;;30.92;10.95;;;;;;;;;;5082192;28;20049;-81
2022/11/02 09:42:30;;;;;;;24.45;9.98;;;;;;;;;;5081980;28;20044;-80
2022/11/02 09:45:17;;;;;;;25.30;10.65;;;;;;;;;;5083461;28;20040;-79
2022/11/02 09:48:11;;;;;;;26.33;8.70;;;;;;;;;;5083344;28;20036;-78
2022/11/02 09:51:18;;;;;;;23.92;8.32;;;;;;;;;;5078747;28;20048;-79
2022/11/02 09:54:22;;;;;;;32.97;8.98;;;;;;;;;;5082373;28;20379;-80
2022/11/02 09:57:15;;;;;;;32.95;8.05;;;;;;;;;;5083015;28;20044;-78
2022/11/02 10:00:00;;;;;;;23.67;7.55;;;;;;;;;;5082546;28;20040;-80
2022/11/02 10:03:14;;;;;;;26.10;7.45;;;;;;;;;;5081751;28;20044;-80
2022/11/02 10:06:14;;;;;;;24.27;8.38;;;;;;;;;;5083042;28;20040;-79
2022/11/02 10:09:11;;;;;;;22.35;7.80;;;;;;;;;;5076335;28;20360;-78
2022/11/02 10:12:12;;;;;;;14.15;6.80;;;;;;;;;;5083440;28;20048;-80
2022/11/02 10:15:08;;;;;;;27.73;7.53;;;;;;;;;;5082543;28;20036;-80
2022/11/02 10:17:57;;;;;;;29.98;7.03;;;;;;;;;;5081498;28;20048;-80
2022/11/02 10:20:49;;;;;;;13.00;5.35;;;;;;;;;;5082282;28;20048;-78
2022/11/02 10:23:46;;;;;;;14.70;5.88;;;;;;;;;;5082577;28;20048;-79
2022/11/02 10:26:34;;;;;;;12.60;5.07;;;;;;;;;;5075536;28;20036;-80
2022/11/02 10:29:46;;;;;;;16.02;5.50;;;;;;;;;;5082161;28;20383;-80
2022/11/02 10:32:35;;;;;;;24.38;5.22;;;;;;;;;;5075009;28;20048;-80
2022/11/02 10:35:33;;;;;;;17.50;6.03;;;;;;;;;;5081987;28;20037;-80
2022/11/02 10:38:34;;;;;;;18.02;6.47;;;;;;;;;;5075852;28;20040;-79
2022/11/02 10:41:57;;;;;;;16.63;5.88;;;;;;;;;;5082077;28;20048;-79
2022/11/02 10:44:49;;;;;;;18.38;6.93;;;;;;;;;;5075559;28;20044;-79
2022/11/02 10:47:52;;;;;;;21.70;7.25;;;;;;;;;;5080091;28;20480;-80
2022/11/02 10:50:50;;;;;;;15.30;6.43;;;;;;;;;;5076236;28;20036;-80
2022/11/02 10:53:41;;;;;;;18.58;5.57;;;;;;;;;;5080558;28;20036;-79
2022/11/02 10:56:32;;;;;;;14.93;5.38;;;;;;;;;;5081257;28;20041;-79
2022/11/02 10:59:19;;;;;;;14.20;6.22;;;;;;;;;;5074167;28;20048;-79
2022/11/02 11:02:12;;;;;;;16.25;5.78;;;;;;;;;;5081679;28;20045;-81
2022/11/02 11:05:12;;;;;;;17.27;6.27;;;;;;;;;;5081660;28;20041;-80
2022/11/02 11:07:58;;;;;;;21.48;6.22;;;;;;;;;;5081820;28;20044;-81
2022/11/02 11:10:43;;;;;;;15.95;5.40;;;;;;;;;;5080448;28;20052;-81
2022/11/02 11:13:28;;;;;;;16.88;5.68;;;;;;;;;;5081701;28;20460;-80
2022/11/02 11:16:14;;;;;;;19.40;5.75;;;;;;;;;;5081472;28;20041;-81
2022/11/02 11:19:00;;;;;;;14.85;5.78;;;;;;;;;;5081211;28;20044;-79
2022/11/02 11:21:45;;;;;;;19.35;5.85;;;;;;;;;;5080275;28;20044;-78
2022/11/02 11:24:33;;;;;;;19.27;9.40;;;;;;;;;;5080781;28;20048;-79
2022/11/02 11:27:20;;;;;;;16.63;7.22;;;;;;;;;;5081727;28;20052;-78
2022/11/02 11:30:29;;;;;;;18.08;6.60;;;;;;;;;;5080971;28;20037;-80
2022/11/02 11:33:18;;;;;;;19.92;6.75;;;;;;;;;;5080844;28;20460;-79
2022/11/02 11:36:05;;;;;;;16.77;6.32;;;;;;;;;;5082543;28;20375;-80
2022/11/02 11:38:52;;;;;;;18.85;6.25;;;;;;;;;;5081701;28;20041;-79
2022/11/02 11:41:39;;;;;;;18.15;7.00;;;;;;;;;;5080692;28;20037;-79
2022/11/02 11:44:25;;;;;;;22.77;6.97;;;;;;;;;;5074142;28;20037;-80
2022/11/02 11:47:12;;;;;;;19.00;6.47;;;;;;;;;;5082309;28;20052;-80
2022/11/02 11:50:01;;;;;;;19.50;6.70;;;;;;;;;;5084417;28;20040;-79
2022/11/02 11:52:48;;;;;;;13.23;5.90;;;;;;;;;;5085586;28;20048;-79
2022/11/02 11:55:33;;;;;;;14.32;6.25;;;;;;;;;;5078977;28;20040;-78
2022/11/02 11:58:27;;;;;;;16.48;6.60;;;;;;;;;;5079037;28;20040;-77
2022/11/02 12:01:15;;;;;;;15.57;6.25;;;;;;;;;;5086635;28;20475;-78
2022/11/02 12:04:01;;;;;;;19.83;6.05;;;;;;;;;;5086509;28;20044;-78
2022/11/02 12:07:09;;;;;;;12.52;5.43;;;;;;;;;;5085410;28;20044;-77
2022/11/02 12:10:20;;;;;;;15.30;5.05;;;;;;;;;;5080707;28;20411;-78
2022/11/02 12:13:28;;;;;;;18.77;5.13;;;;;;;;;;5077545;28;20045;-78
2022/11/02 12:16:39;;;;;;;12.90;4.80;;;;;;;;;;5059812;28;20049;-79
2022/11/02 12:20:07;;;;;;;12.43;4.80;;;;;;;;;;5060620;28;20044;-79
2022/11/02 12:23:05;;;;;;;14.98;4.63;;;;;;;;;;5039455;28;20045;-79
2022/11/02 12:26:15;;;;;;;13.90;5.53;;;;;;;;;;5060563;28;20052;-82
2022/11/02 12:29:40;;;;;;;12.77;5.05;;;;;;;;;;5079125;28;20048;-79
2022/11/02 12:32:35;;;;;;;12.40;4.07;;;;;;;;;;5057704;28;20045;-81
2022/11/02 12:35:31;;;;;;;;;;;;;;;;;;5060405;28;20036;-78
2022/11/02 12:38:23;;;;;;;15.75;3.97;;;;;;;;;;5060173;28;19908;-81
2022/11/02 12:41:16;;;;;;;8.80;3.83;;;;;;;;;;5062326;28;20041;-79
2022/11/02 12:44:25;;;;;;;10.27;3.95;;;;;;;;;;5068729;28;20049;-80
2022/11/02 12:47:24;;;;;;;9.88;4.50;;;;;;;;;;5057505;28;20472;-79
2022/11/02 12:50:45;;;;;;;10.25;4.22;;;;;;;;;;5077018;28;20052;-80
2022/11/02 12:53:54;;;;;;;12.05;5.15;;;;;;;;;;5083052;28;20471;-78
2022/11/02 12:56:49;;;;;;;17.63;6.10;;;;;;;;;;5084945;28;20387;-78
2022/11/02 12:59:34;;;;;;;;;;;;;;;;;;5104479;28;20048;-80
2022/11/02 13:02:32;;;;;;;17.20;5.70;;;;;;;;;;5103431;28;20338;-79
2022/11/02 13:05:21;;;;;;;21.95;5.95;;;;;;;;;;5104831;28;20039;-79
2022/11/02 13:08:09;;;;;;;19.30;6.32;;;;;;;;;;5088260;28;20044;-79
2022/11/02 13:11:00;;;;;;;24.08;6.63;;;;;;;;;;5070998;28;20037;-79
2022/11/02 13:13:51;;;;;;;14.52;5.50;;;;;;;;;;5081213;28;20033;-78
2022/11/02 13:16:42;;;;;;;14.98;5.30;;;;;;;;;;5078064;28;20037;-79
2022/11/02 13:19:38;;;;;;;15.93;6.03;;;;;;;;;;5073808;28;20045;-78
2022/11/02 13:22:29;;;;;;;12.30;5.30;;;;;;;;;;5073967;28;20044;-79
2022/11/02 13:25:46;;;;;;;16.02;5.50;;;;;;;;;;5082724;28;20044;-78
2022/11/02 13:28:34;;;;;;;12.85;5.45;;;;;;;;;;5074853;28;20052;-79
2022/11/02 13:31:40;;;;;;;18.27;8.95;;;;;;;;;;5076150;28;20036;-79
2022/11/02 13:34:34;;;;;;;30.75;11.10;;;;;;;;;;5072095;28;20044;-80
2022/11/02 13:37:30;;;;;;;46.58;16.67;;;;;;;;;;5077429;28;20044;-80
2022/11/02 13:40:38;;;;;;;48.08;17.60;;;;;;;;;;5083447;28;20048;-80
2022/11/02 13:43:42;;;;;;;46.45;17.08;;;;;;;;;;5083066;28;20062;-78
2022/11/02 13:47:07;;;;;;;54.03;19.23;;;;;;;;;;5084438;28;20044;-81
2022/11/02 13:49:56;;;;;;;27.88;10.25;;;;;;;;;;5061567;28;20053;-77
2022/11/02 13:52:54;;;;;;;46.33;12.57;;;;;;;;;;5073382;28;20044;-78
2022/11/02 13:55:53;;;;;;;33.35;13.13;;;;;;;;;;5061013;28;20044;-81
2022/11/02 13:58:46;;;;;;;33.30;14.20;;;;;;;;;;5082615;28;20044;-80
2022/11/02 14:01:35;;;;;;;33.33;13.43;;;;;;;;;;5076023;28;20376;-78
2022/11/02 14:04:20;;;;;;;51.55;15.65;;;;;;;;;;5074894;28;20044;-80
2022/11/02 14:07:29;;;;;;;46.28;15.85;;;;;;;;;;5082645;28;20040;-80
2022/11/02 14:10:16;;;;;;;41.88;20.27;;;;;;;;;;5076749;28;20040;-79
2022/11/02 14:13:01;;;;;;;48.13;21.15;;;;;;;;;;5062300;28;20384;-81
2022/11/02 14:15:51;;;;;;;41.53;19.30;;;;;;;;;;5065769;28;20036;-79
2022/11/02 14:18:36;;;;;;;47.72;17.92;;;;;;;;;;5082128;28;20135;-79
2022/11/02 14:21:42;;;;;;;58.55;24.13;;;;;;;;;;5082484;28;20052;-80
2022/11/02 14:24:36;;;;;;;54.15;24.05;;;;;;;;;;5078708;28;20371;-81
2022/11/02 14:27:22;;;;;;;56.53;23.45;;;;;;;;;;5080837;28;20052;-80
2022/11/02 14:30:41;;;;;;;51.30;25.33;;;;;;;;;;5082679;28;20044;-81
2022/11/02 14:33:26;;;;;;;57.72;25.48;;;;;;;;;;5075668;28;20040;-78
2022/11/02 14:36:15;;;;;;;52.58;27.30;;;;;;;;;;5082111;28;20040;-79
2022/11/02 14:39:21;;;;;;;61.25;27.30;;;;;;;;;;5082339;28;20041;-78
2022/11/02 14:42:18;;;;;;;64.75;27.60;;;;;;;;;;5082090;28;20048;-77
2022/11/02 14:45:33;;;;;;;58.00;28.75;;;;;;;;;;5081906;28;20044;-78
2022/11/02 14:48:19;;;;;;;48.00;25.38;;;;;;;;;;5074863;28;20036;-78
2022/11/02 14:51:12;;;;;;;44.22;20.23;;;;;;;;;;5088050;28;20040;-78
2022/11/02 14:54:02;;;;;;;46.25;21.55;;;;;;;;;;5092982;28;20127;-77
2022/11/02 14:57:01;;;;;;;43.75;22.05;;;;;;;;;;5081606;28;20387;-79
2022/11/02 14:59:50;;;;;;;45.45;19.95;;;;;;;;;;5080010;28;20036;-80
2022/11/02 15:02:38;;;;;;;42.97;21.88;;;;;;;;;;5072977;28;20032;-77
2022/11/02 15:05:22;;;;;;;44.67;20.80;;;;;;;;;;5074345;28;20052;-81
2022/11/02 15:08:30;;;;;;;70.80;30.48;;;;;;;;;;5074456;28;20036;-78
2022/11/02 15:11:41;;;;;;;88.53;35.58;;;;;;;;;;5074983;28;20387;-79
2022/11/02 15:14:38;;;;;;;128.57;50.15;;;;;;;;;;5061768;28;20036;-79
2022/11/02 15:17:24;;;;;;;69.93;30.52;;;;;;;;;;5059619;28;20048;-80
2022/11/02 15:20:13;;;;;;;101.60;41.88;;;;;;;;;;5079930;28;20044;-80
2022/11/02 15:23:27;;;;;;;50.00;22.27;;;;;;;;;;5064742;28;20029;-79
2022/11/02 15:26:27;;;;;;;46.80;21.98;;;;;;;;;;5077904;28;20049;-80
2022/11/02 15:29:23;;;;;;;48.28;22.60;;;;;;;;;;5080738;28;20044;-80
2022/11/02 15:32:17;;;;;;;59.35;27.65;;;;;;;;;;5074557;28;20044;-78
2022/11/02 15:35:03;;;;;;;;;;;;;;;;;;5080869;28;20380;-79
2022/11/02 15:37:54;;;;;;;;;;;;;;;;;;5073717;28;20244;-79
2022/11/02 15:40:46;;;;;;;66.15;29.08;;;;;;;;;;5072855;28;19912;-78
2022/11/02 15:43:38;;;;;;;61.95;26.23;;;;;;;;;;5073654;28;20048;-79
2022/11/02 15:46:36;;;;;;;59.97;27.80;;;;;;;;;;5074328;28;20048;-79
2022/11/02 15:49:42;;;;;;;53.78;25.63;;;;;;;;;;5080413;28;20471;-78
2022/11/02 15:52:39;;;;;;;41.47;21.83;;;;;;;;;;5080593;28;20044;-78
2022/11/02 15:55:46;;;;;;;51.03;21.45;;;;;;;;;;5080541;28;20040;-80
2022/11/02 15:58:34;;;;;;;42.38;20.77;;;;;;;;;;5081066;28;20044;-78
2022/11/02 16:01:21;;;;;;;41.85;20.27;;;;;;;;;;5073880;28;20028;-77
2022/11/02 16:04:17;;;;;;;44.17;22.25;;;;;;;;;;5073567;28;20040;-79
2022/11/02 16:07:05;;;;;;;64.22;30.08;;;;;;;;;;5073719;28;20057;-78
2022/11/02 16:09:51;;;;;;;54.67;30.02;;;;;;;;;;5074032;28;20040;-78
2022/11/02 16:12:36;;;;;;;57.63;26.70;;;;;;;;;;5073238;28;20040;-81
2022/11/02 16:15:22;;;;;;;55.70;25.95;;;;;;;;;;5079374;28;20055;-79
2022/11/02 16:18:28;;;;;;;67.63;28.20;;;;;;;;;;5079841;28;20460;-80
2022/11/02 16:21:15;;;;;;;62.53;30.00;;;;;;;;;;5079438;28;20044;-80
2022/11/02 16:23:59;;;;;;;83.47;35.58;;;;;;;;;;5073725;28;20037;-79
2022/11/02 16:26:45;;;;;;;95.97;40.25;;;;;;;;;;5073402;28;20032;-79
2022/11/02 16:29:31;;;;;;;78.78;35.88;;;;;;;;;;5073396;28;20048;-80
2022/11/02 16:32:16;;;;;;;66.53;32.20;;;;;;;;;;5080615;28;20037;-78
2022/11/02 16:35:01;;;;;;;;;;;;;;;;;;5073444;28;20387;-78
2022/11/02 16:37:48;;;;;;;85.10;36.28;;;;;;;;;;5073281;28;19912;-77
2022/11/02 16:40:33;;;;;;;93.55;43.65;;;;;;;;;;5073302;28;20048;-78
2022/11/02 16:43:19;;;;;;;90.10;44.30;;;;;;;;;;5081249;28;20045;-80
2022/11/02 16:46:05;;;;;;;99.20;42.38;;;;;;;;;;5079797;28;20115;-77
2022/11/02 16:49:12;;;;;;;97.25;42.80;;;;;;;;;;5076512;28;20040;-79
2022/11/02 16:52:05;;;;;;;106.80;51.92;;;;;;;;;;5079346;28;20040;-80
2022/11/02 16:54:50;;;;;;;97.53;48.58;;;;;;;;;;5071161;28;20475;-78
2022/11/02 16:57:43;;;;;;;115.70;53.42;;;;;;;;;;5078332;28;20048;-79
2022/11/02 17:00:29;;;;;;;96.97;45.47;;;;;;;;;;5077487;28;20040;-79